Time;durP1;ratioP1;P1;durP2;ratioP2;P2;SDS_P1;SDS_P2;PMS_P1;PMS_P2;Temp;Humidity;BMP_temperature;BMP_pressure;BME280_temperature;BME280_humidity;BME280_pressure;Samples;Min_cycle;Max_cycle;Signal;HPM_P1;HPM_P2
2022/06/12 00:01:20;;;;;;;14.30;4.30;;;;;;;15.66;64.20;100835.21;106518;1271;22668;-76
2022/06/12 00:03:52;;;;;;;12.90;3.90;;;;;;;15.61;64.53;100828.02;106458;1271;22586;-75
2022/06/12 00:06:25;;;;;;;12.80;4.60;;;;;;;15.57;64.75;100826.30;106671;1271;25432;-76
2022/06/12 00:08:56;;;;;;;14.50;4.90;;;;;;;15.53;64.91;100828.11;106476;1271;22555;-75
2022/06/12 00:11:29;;;;;;;15.00;5.10;;;;;;;15.49;64.98;100826.64;106530;1271;22688;-75
2022/06/12 00:14:04;;;;;;;14.30;5.30;;;;;;;15.46;65.19;100822.98;106379;1271;22995;-75
2022/06/12 00:16:40;;;;;;;14.20;5.10;;;;;;;15.43;65.28;100824.68;106405;1271;24242;-76
2022/06/12 00:19:13;;;;;;;17.50;6.00;;;;;;;15.40;65.36;100826.84;106402;1271;22553;-76
2022/06/12 00:21:44;;;;;;;19.00;4.80;;;;;;;15.37;65.52;100821.19;106554;1271;22465;-76
2022/06/12 00:24:18;;;;;;;13.80;4.70;;;;;;;15.32;65.59;100821.56;106438;1271;22590;-76
2022/06/12 00:26:54;;;;;;;14.10;5.00;;;;;;;15.28;65.91;100820.76;106529;1271;24293;-75
2022/06/12 00:29:28;;;;;;;12.60;4.60;;;;;;;15.28;65.91;100814.86;106414;1271;23470;-74
2022/06/12 00:32:02;;;;;;;13.80;4.30;;;;;;;15.24;66.01;100813.45;106554;1271;22710;-76
2022/06/12 00:34:36;;;;;;;16.40;5.00;;;;;;;15.21;66.17;100818.44;106343;1271;22546;-75
2022/06/12 00:37:09;;;;;;;17.90;5.30;;;;;;;15.16;66.38;100817.93;106574;1271;24271;-76
2022/06/12 00:39:43;;;;;;;16.80;4.60;;;;;;;15.12;66.69;100824.80;106449;1271;25431;-75
2022/06/12 00:42:25;;;;;;;22.80;6.10;;;;;;;15.06;66.76;100821.52;106531;1271;22525;-76
2022/06/12 00:44:59;;;;;;;13.80;4.60;;;;;;;15.01;67.04;100818.66;106441;1271;22564;-76
2022/06/12 00:47:30;;;;;;;15.40;5.10;;;;;;;14.95;67.10;100816.45;106589;1271;22558;-75
2022/06/12 00:50:06;;;;;;;17.30;5.00;;;;;;;14.91;67.27;100815.94;106444;1271;23383;-77
2022/06/12 00:52:44;;;;;;;13.70;5.00;;;;;;;14.87;67.54;100811.45;106475;1271;23285;-75
2022/06/12 00:55:24;;;;;;;14.70;4.90;;;;;;;14.85;67.45;100803.50;106700;1271;25353;-75
2022/06/12 00:58:03;;;;;;;16.10;5.20;;;;;;;14.83;67.71;100804.71;106505;1271;22924;-74
2022/06/12 01:00:37;;;;;;;13.10;4.90;;;;;;;14.81;67.58;100806.64;106441;1271;22771;-75
2022/06/12 01:03:09;;;;;;;13.40;4.30;;;;;;;14.79;67.74;100810.75;106396;1271;23378;-75
2022/06/12 01:08:40;;;;;;;11.20;4.30;;;;;;;14.77;68.14;100803.17;105999;1276;24432;-75
2022/06/12 01:11:15;;;;;;;12.10;4.30;;;;;;;14.76;68.30;100799.42;105960;1278;22535;-75
2022/06/12 01:13:49;;;;;;;14.20;5.50;;;;;;;14.74;68.34;100804.63;106032;1277;24126;-75
2022/06/12 01:16:22;;;;;;;15.60;4.70;;;;;;;14.74;68.25;100803.39;106082;1277;22526;-74
2022/06/12 01:18:56;;;;;;;17.50;5.70;;;;;;;14.73;68.72;100806.14;105971;1277;25236;-76
2022/06/12 01:21:51;;;;;;;14.70;5.70;;;;;;;14.73;68.86;100802.72;105902;1277;23979;-75
2022/06/12 01:24:45;;;;;;;15.10;6.60;;;;;;;14.73;68.96;100802.55;105887;1277;22560;-75
2022/06/12 01:27:40;;;;;;;17.60;5.50;;;;;;;14.72;69.12;100798.44;105958;1276;24225;-75
2022/06/12 01:30:19;;;;;;;15.70;5.60;;;;;;;14.70;68.94;100797.02;105834;1277;24366;-75
2022/06/12 01:33:00;;;;;;;13.90;5.20;;;;;;;14.70;68.96;100793.02;106095;1277;22567;-75
2022/06/12 01:35:42;;;;;;;21.00;5.70;;;;;;;14.70;69.05;100790.15;106158;1277;22556;-75
2022/06/12 01:38:22;;;;;;;19.80;6.80;;;;;;;14.68;69.12;100785.34;105985;1277;25426;-76
2022/06/12 01:41:00;;;;;;;15.40;7.30;;;;;;;14.68;69.23;100783.50;105990;1276;22937;-75
2022/06/12 01:43:50;;;;;;;21.00;6.80;;;;;;;14.69;69.37;100780.39;106014;1277;24323;-76
2022/06/12 01:46:24;;;;;;;17.50;6.90;;;;;;;14.69;69.70;100777.58;106462;1270;22540;-75
2022/06/12 01:49:02;;;;;;;19.60;6.60;;;;;;;14.69;69.61;100774.45;106531;1270;22630;-75
2022/06/12 01:51:40;;;;;;;18.80;6.60;;;;;;;14.69;69.93;100771.69;106455;1271;22566;-76
2022/06/12 01:54:29;;;;;;;14.90;5.60;;;;;;;14.70;70.02;100770.03;106433;1271;23368;-76
2022/06/12 01:57:06;;;;;;;15.90;5.80;;;;;;;14.72;70.24;100770.81;106392;1270;22532;-76
2022/06/12 01:59:45;;;;;;;16.80;6.00;;;;;;;14.74;70.44;100771.30;106346;1271;25296;-75
2022/06/12 02:02:25;;;;;;;12.90;4.80;;;;;;;14.77;70.50;100773.06;106456;1271;25411;-76
2022/06/12 02:05:02;;;;;;;15.20;4.70;;;;;;;14.80;70.60;100770.17;106378;1271;22539;-75
2022/06/12 02:07:38;;;;;;;12.20;4.90;;;;;;;14.82;70.61;100772.96;106424;1271;22542;-76
2022/06/12 02:10:14;;;;;;;11.30;4.50;;;;;;;14.85;70.91;100774.94;106376;1271;26871;-75
2022/06/12 02:15:48;;;;;;;14.50;5.20;;;;;;;14.86;71.15;100792.58;106407;1271;22722;-75
2022/06/12 02:18:26;;;;;;;14.80;5.40;;;;;;;14.83;70.94;100786.05;106552;1270;25232;-75
2022/06/12 02:21:03;;;;;;;17.20;4.80;;;;;;;14.84;71.02;100780.75;106567;1270;22639;-75
2022/06/12 02:23:42;;;;;;;15.50;5.60;;;;;;;14.83;71.26;100786.31;106482;1271;22554;-75
2022/06/12 02:26:18;;;;;;;14.00;5.20;;;;;;;14.83;71.01;100780.64;106515;1271;23097;-75
2022/06/12 02:28:55;;;;;;;14.90;5.20;;;;;;;14.85;71.28;100782.45;106334;1271;22548;-76
2022/06/12 02:31:30;;;;;;;13.90;5.00;;;;;;;14.86;71.32;100779.09;106472;1272;22550;-75
2022/06/12 02:34:06;;;;;;;12.80;5.50;;;;;;;14.87;71.23;100774.19;106471;1270;22577;-75
2022/06/12 02:36:42;;;;;;;13.70;5.20;;;;;;;14.88;71.45;100773.80;106551;1271;22498;-76
2022/06/12 02:39:20;;;;;;;14.10;4.80;;;;;;;14.90;71.46;100777.08;106458;1271;24827;-76
2022/06/12 02:41:56;;;;;;;16.70;5.50;;;;;;;14.92;71.89;100777.98;106707;1271;22613;-76
2022/06/12 02:44:34;;;;;;;12.00;4.30;;;;;;;14.95;71.77;100778.30;106417;1271;22530;-76
2022/06/12 02:47:10;;;;;;;14.30;5.80;;;;;;;14.97;71.76;100782.52;106725;1263;105156;-63
2022/06/12 02:49:46;;;;;;;18.20;5.30;;;;;;;14.98;71.85;100783.70;106156;1271;22537;-62
2022/06/12 02:52:24;;;;;;;15.40;4.90;;;;;;;15.01;72.11;100782.97;106073;1271;22532;-62
2022/06/12 02:55:05;;;;;;;9.70;4.10;;;;;;;15.02;72.21;100778.08;106373;1271;24339;-63
2022/06/12 02:57:41;;;;;;;16.70;5.00;;;;;;;15.03;72.13;100777.84;106048;1271;22525;-63
2022/06/12 03:00:19;;;;;;;12.60;5.00;;;;;;;15.05;72.21;100778.86;106517;1271;22660;-63
2022/06/12 03:02:56;;;;;;;12.70;5.00;;;;;;;15.08;72.28;100782.87;107181;1271;25309;-63
2022/06/12 03:05:31;;;;;;;15.20;5.10;;;;;;;15.09;72.26;100778.19;106152;1271;22527;-63
2022/06/12 03:08:06;;;;;;;12.50;4.30;;;;;;;15.11;72.28;100772.75;106130;1271;22545;-63
2022/06/12 03:10:41;;;;;;;14.20;5.00;;;;;;;15.15;72.29;100778.08;106196;1271;26781;-62
2022/06/12 03:13:13;;;;;;;12.90;4.50;;;;;;;15.17;72.63;100772.33;106210;1271;22570;-63
2022/06/12 03:15:48;;;;;;;19.80;6.10;;;;;;;15.19;72.46;100776.59;106280;1271;25570;-63
2022/06/12 03:18:26;;;;;;;15.20;5.30;;;;;;;15.21;72.56;100772.15;106200;1271;22936;-67
2022/06/12 03:21:09;;;;;;;12.00;4.60;;;;;;;15.23;72.61;100771.66;106156;1271;24264;-62
2022/06/12 03:23:51;;;;;;;14.40;5.00;;;;;;;15.25;72.71;100769.69;105806;1271;26522;-62
2022/06/12 03:26:31;;;;;;;11.80;5.20;;;;;;;15.28;72.82;100770.17;106108;1271;22742;-62
2022/06/12 03:29:12;;;;;;;13.80;4.70;;;;;;;15.30;72.82;100768.50;106011;1271;22542;-62
2022/06/12 03:31:52;;;;;;;12.80;5.60;;;;;;;15.32;72.99;100772.40;106068;1271;24386;-63
2022/06/12 03:34:33;;;;;;;15.90;5.40;;;;;;;15.34;73.13;100768.23;106023;1271;25976;-63
2022/06/12 03:37:11;;;;;;;10.80;4.70;;;;;;;15.36;73.01;100770.34;105917;1271;22550;-62
2022/06/12 03:39:47;;;;;;;13.70;5.10;;;;;;;15.38;73.06;100769.17;106172;1271;22680;-63
2022/06/12 03:42:26;;;;;;;17.50;4.90;;;;;;;15.40;72.98;100767.25;105969;1271;22548;-63
2022/06/12 03:45:06;;;;;;;12.80;5.80;;;;;;;15.43;72.96;100767.00;106028;1270;22544;-63
2022/06/12 03:47:44;;;;;;;17.50;5.00;;;;;;;15.46;73.01;100769.63;106128;1271;22678;-62
2022/06/12 03:50:18;;;;;;;11.60;4.50;;;;;;;15.48;73.02;100771.85;105962;1271;22544;-66
2022/06/12 03:53:00;;;;;;;13.70;4.90;;;;;;;15.51;72.93;100772.94;106140;1271;22548;-63
2022/06/12 03:58:31;;;;;;;15.20;5.20;;;;;;;15.57;72.99;100779.89;106076;1269;25356;-63
2022/06/12 04:01:05;;;;;;;13.50;4.20;;;;;;;15.61;72.99;100783.50;105989;1271;22474;-63
2022/06/12 04:03:40;;;;;;;14.80;4.30;;;;;;;15.64;73.03;100783.46;106171;1271;24260;-63
2022/06/12 04:06:17;;;;;;;13.30;4.80;;;;;;;15.68;72.93;100787.23;106071;1271;23643;-63
2022/06/12 04:08:53;;;;;;;12.70;4.50;;;;;;;15.71;72.87;100788.60;105840;1271;25180;-63
2022/06/12 04:11:28;;;;;;;12.80;4.50;;;;;;;15.74;72.94;100790.25;106019;1271;24233;-63
2022/06/12 04:14:02;;;;;;;13.10;4.40;;;;;;;15.78;73.10;100788.70;106154;1270;22543;-63
2022/06/12 04:16:39;;;;;;;11.50;4.00;;;;;;;15.83;73.03;100786.42;106019;1271;25483;-63
2022/06/12 04:19:17;;;;;;;11.70;4.10;;;;;;;15.87;72.82;100787.73;105910;1271;27426;-62
2022/06/12 04:21:59;;;;;;;12.10;3.70;;;;;;;15.89;72.89;100784.50;106414;1271;22515;-63
2022/06/12 04:24:42;;;;;;;13.50;4.30;;;;;;;15.94;72.82;100780.95;106169;1271;22547;-62
2022/06/12 04:27:22;;;;;;;11.40;3.50;;;;;;;15.99;72.70;100783.23;106337;1271;22559;-62
2022/06/12 04:29:57;;;;;;;12.70;4.00;;;;;;;16.04;72.73;100786.14;106347;1271;26481;-63
2022/06/12 04:32:31;;;;;;;12.10;4.20;;;;;;;16.10;72.79;100783.35;106295;1271;26575;-63
2022/06/12 04:35:03;;;;;;;10.20;3.40;;;;;;;16.15;72.74;100786.29;106253;1271;24233;-62
2022/06/12 04:37:35;;;;;;;12.00;3.50;;;;;;;16.20;72.48;100784.84;106255;1271;23917;-62
2022/06/12 04:40:15;;;;;;;11.90;4.20;;;;;;;16.27;72.51;100779.28;106156;1271;22553;-63
2022/06/12 04:42:46;;;;;;;13.20;4.50;;;;;;;16.33;72.28;100780.28;106086;1271;22493;-62
2022/06/12 04:45:19;;;;;;;12.90;3.90;;;;;;;16.40;72.41;100781.42;106163;1271;24973;-63
2022/06/12 04:47:50;;;;;;;12.10;3.60;;;;;;;16.45;72.39;100781.76;105945;1271;24275;-63
2022/06/12 04:50:22;;;;;;;8.10;2.60;;;;;;;16.52;72.15;100781.66;106178;1269;22539;-63
2022/06/12 04:52:53;;;;;;;10.10;4.00;;;;;;;16.59;72.26;100780.82;106149;1271;22525;-63
2022/06/12 04:55:25;;;;;;;11.00;3.40;;;;;;;16.68;72.00;100781.91;106389;1270;22555;-62
2022/06/12 04:57:57;;;;;;;10.20;3.60;;;;;;;16.74;72.07;100774.45;105880;1271;22555;-62
2022/06/12 05:00:28;;;;;;;14.70;3.90;;;;;;;16.82;72.01;100773.49;106111;1271;24262;-63
2022/06/12 05:03:00;;;;;;;11.20;3.50;;;;;;;16.90;71.97;100772.84;106048;1271;25322;-63
2022/06/12 05:05:32;;;;;;;11.90;3.80;;;;;;;16.97;71.61;100774.86;105922;1271;25365;-63
2022/06/12 05:08:03;;;;;;;10.30;3.50;;;;;;;17.04;71.66;100781.32;105999;1271;25258;-63
2022/06/12 05:10:36;;;;;;;10.70;3.40;;;;;;;17.09;71.52;100785.99;105904;1271;22540;-63
2022/06/12 05:13:08;;;;;;;10.50;3.70;;;;;;;17.18;71.69;100791.20;105945;1270;22633;-62
2022/06/12 05:15:40;;;;;;;11.90;3.10;;;;;;;17.28;71.56;100789.30;106132;1271;25323;-63
2022/06/12 05:18:14;;;;;;;9.50;3.40;;;;;;;17.38;71.33;100788.16;106206;1271;22531;-62
2022/06/12 05:20:46;;;;;;;11.10;3.20;;;;;;;17.47;71.11;100783.91;105983;1271;24305;-62
2022/06/12 05:23:18;;;;;;;11.10;3.40;;;;;;;17.54;70.85;100787.17;106019;1271;26573;-63
2022/06/12 05:25:51;;;;;;;11.90;3.60;;;;;;;17.60;70.54;100789.01;106122;1271;22548;-63
2022/06/12 05:28:23;;;;;;;9.20;2.90;;;;;;;17.64;70.31;100794.59;106190;1271;25569;-63
2022/06/12 05:30:55;;;;;;;12.40;3.70;;;;;;;17.67;70.31;100796.55;106189;1271;22474;-63
2022/06/12 05:33:28;;;;;;;14.30;3.80;;;;;;;17.70;70.22;100796.50;106135;1271;24500;-63
2022/06/12 05:36:01;;;;;;;12.50;3.70;;;;;;;17.72;70.16;100800.66;106070;1271;22547;-63
2022/06/12 05:38:33;;;;;;;10.60;3.10;;;;;;;17.73;70.05;100804.25;106166;1270;22529;-63
2022/06/12 05:41:04;;;;;;;11.00;3.10;;;;;;;17.77;70.07;100799.31;106311;1271;22698;-63
2022/06/12 05:43:40;;;;;;;10.50;3.60;;;;;;;17.80;70.00;100795.55;105982;1271;23165;-62
2022/06/12 05:46:15;;;;;;;8.90;2.70;;;;;;;17.86;70.14;100794.48;106131;1270;22592;-63
2022/06/12 05:48:47;;;;;;;12.10;3.10;;;;;;;17.96;70.05;100791.02;106216;1270;26213;-63
2022/06/12 05:51:21;;;;;;;10.30;3.30;;;;;;;18.08;69.92;100786.61;106125;1271;22535;-63
2022/06/12 05:53:53;;;;;;;11.60;3.00;;;;;;;18.21;69.90;100789.29;105803;1271;22551;-63
2022/06/12 05:56:27;;;;;;;10.20;3.20;;;;;;;18.34;69.46;100787.77;106159;1271;25264;-63
2022/06/12 05:59:00;;;;;;;12.00;2.50;;;;;;;18.47;69.60;100787.31;106120;1271;22538;-63
2022/06/12 06:01:34;;;;;;;10.20;3.40;;;;;;;18.62;69.47;100786.23;106128;1271;22532;-63
2022/06/12 06:04:07;;;;;;;10.50;2.80;;;;;;;18.77;68.80;100789.94;106182;1271;22606;-63
2022/06/12 06:06:43;;;;;;;11.50;2.80;;;;;;;18.93;68.69;100792.73;106024;1271;24053;-63
2022/06/12 06:09:16;;;;;;;10.40;2.80;;;;;;;19.10;68.54;100790.36;106159;1271;22549;-64
2022/06/12 06:11:48;;;;;;;10.10;2.50;;;;;;;19.28;68.59;100790.13;106030;1271;24326;-64
2022/06/12 06:14:20;;;;;;;8.10;2.60;;;;;;;19.48;68.24;100792.26;106133;1271;22553;-64
2022/06/12 06:16:53;;;;;;;9.70;3.10;;;;;;;19.67;67.44;100799.08;105812;1271;25853;-64
2022/06/12 06:19:25;;;;;;;6.80;2.80;;;;;;;19.79;67.09;100797.22;105810;1271;22537;-64
2022/06/12 06:21:56;;;;;;;8.80;2.20;;;;;;;19.92;66.92;100795.48;106010;1271;25652;-63
2022/06/12 06:24:28;;;;;;;10.40;2.40;;;;;;;20.07;66.38;100796.83;106069;1270;24253;-63
2022/06/12 06:26:59;;;;;;;7.00;1.70;;;;;;;20.29;66.29;100798.30;105887;1270;22531;-64
2022/06/12 06:29:31;;;;;;;8.20;2.20;;;;;;;20.51;65.34;100801.80;106162;1271;22674;-64
2022/06/12 06:32:02;;;;;;;6.70;1.80;;;;;;;20.63;64.15;100800.24;105884;1270;24404;-64
2022/06/12 06:34:34;;;;;;;5.60;1.90;;;;;;;20.73;63.35;100794.45;106078;1270;26549;-65
2022/06/12 06:37:08;;;;;;;13.50;2.30;;;;;;;20.83;63.49;100795.29;105877;1271;25306;-63
2022/06/12 06:39:42;;;;;;;8.20;1.70;;;;;;;20.93;63.02;100793.85;105822;1271;25458;-64
2022/06/12 06:42:14;;;;;;;9.80;2.10;;;;;;;21.03;62.69;100793.83;105968;1270;23712;-63
2022/06/12 06:47:35;;;;;;;8.50;2.10;;;;;;;21.20;62.39;100794.61;105868;1270;22535;-64
2022/06/12 06:50:12;;;;;;;10.90;1.70;;;;;;;21.30;61.96;100795.89;106099;1271;22565;-64
2022/06/12 06:52:44;;;;;;;9.80;1.90;;;;;;;21.39;61.74;100795.42;105995;1270;22531;-64
2022/06/12 06:55:17;;;;;;;7.30;1.80;;;;;;;21.50;61.71;100795.47;105982;1270;26635;-64
2022/06/12 06:57:50;;;;;;;8.30;1.90;;;;;;;21.59;60.68;100800.36;106021;1271;22538;-65
2022/06/12 07:00:26;;;;;;;8.60;2.00;;;;;;;21.69;59.60;100802.61;106041;1271;25108;-64
2022/06/12 07:02:58;;;;;;;6.00;1.70;;;;;;;21.71;59.11;100808.73;106183;1271;25407;-64
2022/06/12 07:05:30;;;;;;;8.80;2.10;;;;;;;21.66;58.86;100805.94;106055;1271;25264;-63
2022/06/12 07:08:04;;;;;;;8.90;2.20;;;;;;;21.66;58.93;100806.29;106117;1271;22527;-64
2022/06/12 07:10:39;;;;;;;10.10;2.00;;;;;;;21.68;58.16;100809.88;106081;1271;25402;-64
2022/06/12 07:13:11;;;;;;;8.90;1.90;;;;;;;21.69;57.99;100807.99;106081;1271;24780;-64
2022/06/12 07:15:43;;;;;;;7.30;2.00;;;;;;;21.66;57.71;100805.83;105939;1270;22547;-65
2022/06/12 07:18:16;;;;;;;7.40;2.10;;;;;;;21.63;57.83;100805.27;105950;1271;22785;-64
2022/06/12 07:20:50;;;;;;;9.10;2.20;;;;;;;21.60;57.69;100805.21;106332;1271;25800;-64
2022/06/12 07:23:24;;;;;;;9.70;2.50;;;;;;;21.56;57.56;100801.21;105788;1270;26838;-64
2022/06/12 07:25:58;;;;;;;6.90;2.40;;;;;;;21.52;57.52;100798.58;105957;1270;24309;-64
2022/06/12 07:28:30;;;;;;;10.60;2.40;;;;;;;21.52;57.56;100799.88;101785;1270;5715860;-63
2022/06/12 07:31:03;;;;;;;9.20;2.10;;;;;;;21.55;57.67;100798.59;105777;1270;22548;-64
2022/06/12 07:33:37;;;;;;;15.00;2.60;;;;;;;21.61;57.69;100793.30;106138;1270;22528;-63
2022/06/12 07:36:11;;;;;;;9.30;2.30;;;;;;;21.65;57.69;100792.88;106059;1270;22851;-64
2022/06/12 07:38:45;;;;;;;6.90;2.10;;;;;;;21.66;57.47;100792.90;105926;1270;22759;-64
2022/06/12 07:41:18;;;;;;;7.30;1.90;;;;;;;21.68;57.52;100789.79;105843;1271;23050;-64
2022/06/12 07:43:50;;;;;;;9.40;2.60;;;;;;;21.69;57.35;100789.39;105783;1270;23170;-65
2022/06/12 07:46:22;;;;;;;7.70;2.10;;;;;;;21.72;57.43;100786.55;105842;1271;24291;-64
2022/06/12 07:48:54;;;;;;;8.10;1.90;;;;;;;21.80;57.29;100786.33;106022;1270;22544;-65
2022/06/12 07:51:26;;;;;;;8.00;2.00;;;;;;;21.93;56.81;100786.98;105973;1270;23323;-64
2022/06/12 07:53:58;;;;;;;6.80;1.80;;;;;;;22.04;56.69;100777.11;105981;1271;22532;-64
2022/06/12 07:56:30;;;;;;;10.30;2.00;;;;;;;22.15;56.87;100776.67;105972;1270;25298;-63
2022/06/12 07:59:01;;;;;;;6.90;1.70;;;;;;;22.25;56.60;100780.20;106277;1271;22570;-63
2022/06/12 08:01:33;;;;;;;8.60;2.10;;;;;;;22.37;56.73;100779.90;107449;1270;25309;-64
2022/06/12 08:04:08;;;;;;;5.10;1.70;;;;;;;22.54;56.60;100776.02;105894;1271;25115;-65
2022/06/12 08:06:40;;;;;;;5.90;1.40;;;;;;;22.71;56.18;100777.29;105878;1271;22612;-64
2022/06/12 08:09:12;;;;;;;4.40;1.20;;;;;;;22.83;54.78;100780.13;105943;1270;22784;-63
2022/06/12 08:11:46;;;;;;;7.10;1.60;;;;;;;22.92;54.81;100780.91;106033;1270;22997;-63
2022/06/12 08:14:20;;;;;;;5.10;1.30;;;;;;;23.07;54.25;100780.96;106097;1270;23567;-64
2022/06/12 08:16:52;;;;;;;4.30;1.20;;;;;;;23.17;54.27;100779.17;106136;1271;22548;-64
2022/06/12 08:22:15;;;;;;;5.60;1.60;;;;;;;23.35;53.69;100778.41;105879;1271;22529;-64
2022/06/12 08:24:47;;;;;;;8.70;1.50;;;;;;;23.41;53.91;100773.35;106116;1271;25374;-63
2022/06/12 08:27:19;;;;;;;5.50;1.30;;;;;;;23.51;53.61;100772.25;106153;1270;25305;-63
2022/06/12 08:29:50;;;;;;;6.50;1.30;;;;;;;23.59;52.68;100773.16;106039;1271;22534;-64
2022/06/12 08:32:23;;;;;;;4.20;1.00;;;;;;;23.67;51.65;100768.27;106035;1271;22525;-64
2022/06/12 08:34:58;;;;;;;6.80;1.30;;;;;;;23.74;51.35;100769.56;106209;1270;22568;-64
2022/06/12 08:37:33;;;;;;;3.40;1.00;;;;;;;23.80;51.32;100763.03;105971;1271;25390;-63
2022/06/12 08:40:11;;;;;;;2.70;0.80;;;;;;;23.93;50.90;100764.39;106183;1270;22598;-65
2022/06/12 08:42:51;;;;;;;4.20;1.00;;;;;;;24.03;50.09;100762.67;106458;1271;22797;-65
2022/06/12 08:45:22;;;;;;;;;;;;;;;24.08;50.26;100758.61;106095;1270;26668;-64
2022/06/12 08:48:00;;;;;;;4.40;1.00;;;;;;;24.14;50.26;100758.08;106155;1271;25577;-64
2022/06/12 08:50:38;;;;;;;3.20;1.00;;;;;;;24.22;49.69;100750.97;106225;1271;24389;-64
2022/06/12 08:53:17;;;;;;;4.40;1.00;;;;;;;24.28;49.30;100743.73;106238;1270;22540;-65
2022/06/12 08:55:52;;;;;;;4.20;0.80;;;;;;;24.37;48.74;100743.61;106195;1270;22467;-65
2022/06/12 08:58:28;;;;;;;2.60;0.50;;;;;;;24.47;46.70;100741.19;106238;1270;22704;-64
2022/06/12 09:01:01;;;;;;;3.40;0.90;;;;;;;24.53;47.05;100738.29;106188;1271;22489;-64
2022/06/12 09:03:38;;;;;;;5.60;1.40;;;;;;;24.58;47.18;100738.81;106340;1271;22537;-65
2022/06/12 09:06:20;;;;;;;2.60;0.80;;;;;;;24.63;46.72;100736.54;106131;1271;25344;-65
2022/06/12 09:09:02;;;;;;;4.20;0.90;;;;;;;24.67;46.81;100735.42;106338;1271;26634;-65
2022/06/12 09:11:38;;;;;;;5.10;0.80;;;;;;;24.75;46.58;100733.37;106160;1270;22574;-64
2022/06/12 09:14:19;;;;;;;3.70;0.70;;;;;;;24.85;46.32;100732.41;106317;1271;25432;-65
2022/06/12 09:16:59;;;;;;;5.40;1.50;;;;;;;24.96;45.48;100732.73;106191;1271;24962;-64
2022/06/12 09:19:39;;;;;;;3.20;0.70;;;;;;;25.00;44.32;100726.26;106171;1271;22537;-64
2022/06/12 09:22:18;;;;;;;6.20;1.20;;;;;;;25.00;44.19;100723.48;106140;1271;24380;-64
2022/06/12 09:24:57;;;;;;;3.30;0.60;;;;;;;25.09;44.07;100717.14;106253;1271;22691;-65
2022/06/12 09:27:39;;;;;;;2.60;0.60;;;;;;;25.13;43.77;100715.89;106199;1270;25528;-65
2022/06/12 09:30:16;;;;;;;5.10;0.80;;;;;;;25.21;44.13;100709.65;106143;1270;25659;-65
2022/06/12 09:32:57;;;;;;;3.60;0.90;;;;;;;25.31;43.48;100710.72;106150;1271;22531;-66
2022/06/12 09:35:52;;;;;;;3.30;0.60;;;;;;;25.37;42.94;100705.53;106330;1270;22547;-64
2022/06/12 09:38:38;;;;;;;2.50;0.60;;;;;;;25.42;42.77;100702.62;106229;1271;22533;-64
2022/06/12 09:41:18;;;;;;;5.50;1.00;;;;;;;25.51;42.90;100700.64;106149;1270;24950;-64
2022/06/12 09:44:03;;;;;;;4.40;0.90;;;;;;;25.56;42.64;100699.49;106369;1269;23931;-65
2022/06/12 09:46:43;;;;;;;2.50;0.70;;;;;;;25.55;42.20;100694.85;106231;1270;25251;-64
2022/06/12 09:49:34;;;;;;;3.50;0.50;;;;;;;25.54;41.83;100695.00;106579;1271;24699;-65
2022/06/12 09:52:42;;;;;;;5.10;0.70;;;;;;;25.61;42.18;100687.75;106294;1270;22566;-65
2022/06/12 09:55:20;;;;;;;3.40;0.60;;;;;;;25.76;42.29;100684.48;106172;1271;23203;-65
2022/06/12 09:57:59;;;;;;;4.70;0.70;;;;;;;25.92;42.17;100687.98;106348;1270;22730;-65
2022/06/12 10:00:38;;;;;;;4.70;0.70;;;;;;;26.08;41.92;100684.64;106129;1270;25525;-65
2022/06/12 10:03:16;;;;;;;3.80;0.90;;;;;;;26.21;41.79;100679.15;106219;1271;22764;-64
2022/06/12 10:05:56;;;;;;;2.80;0.70;;;;;;;26.36;41.38;100680.42;106382;1270;25427;-65
2022/06/12 10:08:37;;;;;;;5.40;0.90;;;;;;;26.39;41.00;100678.15;106354;1270;23103;-65
2022/06/12 10:11:17;;;;;;;4.10;0.70;;;;;;;26.39;39.99;100677.43;106097;1270;25577;-64
2022/06/12 10:13:54;;;;;;;3.30;0.80;;;;;;;26.29;39.37;100672.06;106102;1271;24378;-65
2022/06/12 10:16:31;;;;;;;2.00;0.40;;;;;;;26.17;39.49;100672.88;106115;1270;26067;-65
2022/06/12 10:19:10;;;;;;;3.30;0.50;;;;;;;26.14;39.80;100668.88;106256;1270;23892;-64
2022/06/12 10:21:46;;;;;;;4.10;0.60;;;;;;;26.18;38.99;100658.76;106116;1270;22528;-66
2022/06/12 10:24:19;;;;;;;4.40;0.50;;;;;;;26.17;38.92;100654.37;106247;1271;24238;-65
2022/06/12 10:27:01;;;;;;;3.90;0.50;;;;;;;26.23;38.15;100650.57;106178;1271;24778;-65
2022/06/12 10:29:48;;;;;;;3.00;0.60;;;;;;;26.30;38.21;100647.24;106305;1270;22571;-64
2022/06/12 10:32:21;;;;;;;2.40;0.40;;;;;;;26.42;37.96;100640.80;106258;1270;24381;-64
2022/06/12 10:35:14;;;;;;;2.60;0.60;;;;;;;26.65;37.46;100643.77;106260;1270;25678;-64
2022/06/12 10:37:47;;;;;;;5.60;0.60;;;;;;;26.92;37.14;100648.23;106371;1270;23579;-64
2022/06/12 10:40:23;;;;;;;2.10;0.30;;;;;;;27.03;37.01;100648.07;106274;1270;22662;-64
2022/06/12 10:42:59;;;;;;;4.40;0.90;;;;;;;27.07;37.05;100642.23;106118;1270;23918;-64
2022/06/12 10:45:35;;;;;;;4.20;0.90;;;;;;;27.06;36.54;100642.62;106285;1270;22671;-64
2022/06/12 10:48:30;;;;;;;4.20;0.70;;;;;;;27.04;36.36;100644.50;106227;1270;23031;-65
2022/06/12 10:51:06;;;;;;;3.30;0.60;;;;;;;27.02;36.25;100641.61;106194;1270;22613;-65
2022/06/12 10:53:39;;;;;;;3.30;0.50;;;;;;;26.97;36.40;100641.36;106361;1271;22539;-64
2022/06/12 10:56:23;;;;;;;2.10;0.50;;;;;;;26.97;36.96;100639.45;106432;1270;24356;-63
2022/06/12 10:59:12;;;;;;;2.20;0.40;;;;;;;26.98;36.82;100639.02;106390;1270;24405;-65
2022/06/12 11:01:58;;;;;;;4.30;0.50;;;;;;;26.96;36.60;100641.02;106282;1270;22590;-65
2022/06/12 11:04:45;;;;;;;3.90;0.50;;;;;;;26.93;36.32;100643.14;106593;1270;22742;-65
2022/06/12 11:07:29;;;;;;;3.30;0.50;;;;;;;26.93;36.53;100642.27;106216;1271;24336;-64
2022/06/12 11:10:20;;;;;;;4.10;1.10;;;;;;;26.89;35.94;100635.65;106494;1271;22566;-64
2022/06/12 11:13:16;;;;;;;2.50;0.60;;;;;;;26.87;36.04;100636.89;106210;1270;24260;-65
2022/06/12 11:16:04;;;;;;;2.80;0.60;;;;;;;26.94;36.45;100630.61;106192;1270;24014;-64
2022/06/12 11:18:52;;;;;;;3.90;0.50;;;;;;;27.02;36.57;100624.30;106025;1271;25371;-64
2022/06/12 11:21:36;;;;;;;3.40;0.60;;;;;;;27.13;36.71;100619.48;106371;1270;23453;-64
2022/06/12 11:24:24;;;;;;;1.50;0.50;;;;;;;27.26;36.33;100617.04;106207;1270;24203;-65
2022/06/12 11:27:24;;;;;;;2.50;0.40;;;;;;;27.45;35.92;100613.97;106198;1271;25265;-65
2022/06/12 11:30:27;;;;;;;2.10;0.60;;;;;;;27.55;35.93;100613.63;106211;1270;24263;-64
2022/06/12 11:33:19;;;;;;;3.70;0.50;;;;;;;27.70;36.07;100607.50;105788;1276;22557;-66
2022/06/12 11:35:59;;;;;;;4.60;0.90;;;;;;;27.84;36.14;100603.60;105647;1276;22558;-65
2022/06/12 11:39:19;;;;;;;5.60;0.70;;;;;;;27.95;35.95;100600.41;105805;1276;24235;-65
2022/06/12 11:42:10;;;;;;;2.60;0.50;;;;;;;28.10;35.68;100599.16;105292;1281;24738;-64
2022/06/12 11:44:52;;;;;;;1.70;0.50;;;;;;;28.17;34.70;100598.16;105288;1282;25244;-65
2022/06/12 11:47:37;;;;;;;2.00;0.60;;;;;;;28.24;34.74;100595.42;105300;1281;24238;-64
2022/06/12 11:50:26;;;;;;;3.30;0.60;;;;;;;28.27;34.20;100595.30;105315;1282;25241;-65
2022/06/12 11:53:08;;;;;;;4.10;0.60;;;;;;;28.35;34.43;100594.59;105187;1282;22555;-65
2022/06/12 11:55:46;;;;;;;1.50;0.40;;;;;;;28.43;34.20;100596.30;105116;1282;24349;-64
2022/06/12 11:58:49;;;;;;;4.50;0.50;;;;;;;28.50;34.10;100594.85;105212;1282;22525;-65
2022/06/12 12:01:35;;;;;;;3.10;0.60;;;;;;;28.56;34.18;100588.02;105304;1282;22678;-65
2022/06/12 12:04:31;;;;;;;3.20;0.60;;;;;;;28.56;33.84;100588.61;105185;1282;24358;-65
2022/06/12 12:07:19;;;;;;;4.70;0.70;;;;;;;28.56;33.92;100583.17;105333;1282;22713;-66
2022/06/12 12:10:04;;;;;;;4.40;0.50;;;;;;;28.65;33.93;100578.67;105463;1278;22523;-65
2022/06/12 12:12:42;;;;;;;3.40;0.60;;;;;;;28.67;33.41;100575.27;105625;1276;24277;-65
2022/06/12 12:15:20;;;;;;;3.00;0.60;;;;;;;28.67;33.27;100574.10;105728;1278;24245;-64